Time;durP1;ratioP1;P1;durP2;ratioP2;P2;SDS_P1;SDS_P2;PMS_P1;PMS_P2;Temp;Humidity;BMP_temperature;BMP_pressure;BME280_temperature;BME280_humidity;BME280_pressure;Samples;Min_cycle;Max_cycle;Signal;HPM_P1;HPM_P2
2022/06/14 00:00:58;;;;;;;12.60;4.45;;;11.30;99.90;;;;;;5077709;28;20045;-70
2022/06/14 00:03:38;;;;;;;13.52;4.40;;;11.30;99.90;;;;;;5076973;28;20102;-73
2022/06/14 00:06:10;;;;;;;15.55;4.82;;;11.30;99.90;;;;;;5077229;28;20076;-74
2022/06/14 00:08:37;;;;;;;16.73;5.00;;;11.20;99.90;;;;;;5077338;28;20068;-73
2022/06/14 00:11:09;;;;;;;15.52;4.20;;;11.20;99.90;;;;;;5077766;28;20078;-70
2022/06/14 00:13:34;;;;;;;12.50;4.38;;;11.20;99.90;;;;;;5077008;28;20051;-72
2022/06/14 00:16:02;;;;;;;13.75;4.10;;;11.30;99.90;;;;;;5077211;28;20053;-73
2022/06/14 00:18:27;;;;;;;11.15;5.20;;;11.30;99.90;;;;;;5077495;28;20072;-71
2022/06/14 00:20:54;;;;;;;11.35;4.03;;;11.30;99.90;;;;;;5077377;28;20095;-71
2022/06/14 00:23:21;;;;;;;11.88;4.63;;;11.30;99.90;;;;;;5077041;28;20501;-71
2022/06/14 00:25:51;;;;;;;14.48;3.58;;;11.30;99.90;;;;;;5076717;28;20079;-72
2022/06/14 00:28:17;;;;;;;11.70;4.00;;;11.20;99.90;;;;;;5077223;28;20032;-73
2022/06/14 00:30:46;;;;;;;11.93;3.60;;;11.20;99.90;;;;;;5059487;28;20044;-72
2022/06/14 00:33:12;;;;;;;13.70;4.72;;;11.20;99.90;;;;;;5077407;28;20052;-70
2022/06/14 00:35:37;;;;;;;11.10;4.03;;;11.20;99.90;;;;;;5077301;28;20048;-71
2022/06/14 00:38:04;;;;;;;9.85;3.90;;;11.20;99.90;;;;;;5077434;28;20094;-72
2022/06/14 00:40:32;;;;;;;13.45;4.28;;;11.10;99.90;;;;;;5076814;28;20044;-73
2022/06/14 00:43:02;;;;;;;12.38;3.92;;;11.10;99.90;;;;;;5077261;28;20382;-70
2022/06/14 00:45:28;;;;;;;12.23;4.10;;;11.10;99.90;;;;;;5076093;28;20040;-71
2022/06/14 00:48:03;;;;;;;13.38;4.43;;;11.10;99.90;;;;;;5075674;28;20044;-70
2022/06/14 00:50:40;;;;;;;9.80;4.10;;;11.10;99.90;;;;;;5076699;28;20458;-70
2022/06/14 00:53:12;;;;;;;17.00;5.57;;;11.00;99.90;;;;;;5059432;28;20044;-73
2022/06/14 00:55:50;;;;;;;17.33;3.95;;;11.00;99.90;;;;;;5077022;28;20088;-70
2022/06/14 00:58:20;;;;;;;10.63;3.90;;;11.00;99.90;;;;;;5076968;28;20374;-72
2022/06/14 01:01:02;;;;;;;12.52;4.35;;;11.00;99.90;;;;;;5096602;28;20381;-73
2022/06/14 01:03:34;;;;;;;8.63;4.13;;;11.00;99.90;;;;;;5097297;28;20547;-71
2022/06/14 01:06:08;;;;;;;9.35;3.83;;;11.00;99.90;;;;;;5096823;28;20094;-72
2022/06/14 01:08:37;;;;;;;13.88;4.00;;;11.00;99.90;;;;;;5097149;28;20437;-71
2022/06/14 01:11:05;;;;;;;11.32;4.05;;;11.00;99.90;;;;;;5097284;28;20058;-71
2022/06/14 01:13:30;;;;;;;14.43;3.92;;;11.00;99.90;;;;;;5093511;28;20369;-72
2022/06/14 01:15:56;;;;;;;12.05;4.35;;;10.90;99.90;;;;;;5076513;28;20036;-70
2022/06/14 01:18:25;;;;;;;14.32;4.47;;;10.90;99.90;;;;;;5076280;28;20138;-72
2022/06/14 01:20:50;;;;;;;13.82;3.47;;;10.80;99.90;;;;;;5076533;28;20048;-70
2022/06/14 01:23:16;;;;;;;14.50;4.38;;;10.90;99.90;;;;;;5077020;28;20347;-72
2022/06/14 01:25:49;;;;;;;12.90;4.88;;;10.90;99.90;;;;;;5084311;28;20036;-72
2022/06/14 01:28:18;;;;;;;15.80;5.45;;;10.90;99.90;;;;;;5078712;28;20052;-71
2022/06/14 01:30:47;;;;;;;9.07;3.92;;;10.80;99.90;;;;;;5096696;28;20101;-70
2022/06/14 01:33:19;;;;;;;12.80;5.25;;;10.80;99.90;;;;;;5078744;28;20044;-73
2022/06/14 01:35:52;;;;;;;9.68;3.50;;;10.90;99.90;;;;;;5096764;28;20040;-73
2022/06/14 01:38:19;;;;;;;10.48;4.40;;;10.90;99.90;;;;;;5094995;28;20085;-72
2022/06/14 01:40:56;;;;;;;13.45;4.25;;;10.80;99.90;;;;;;5096370;28;20374;-75
2022/06/14 01:43:35;;;;;;;14.68;4.72;;;10.90;99.90;;;;;;5096080;28;20052;-70
2022/06/14 01:46:20;;;;;;;11.45;4.05;;;10.80;99.90;;;;;;5096105;28;20052;-73
2022/06/14 01:51:50;;;;;;;15.50;4.70;;;10.80;99.90;;;;;;5096432;28;20044;-73
2022/06/14 01:51:51;;;;;;;18.73;5.85;;;10.70;99.90;;;;;;5076843;28;20056;-73
2022/06/14 01:54:33;;;;;;;13.83;4.47;;;10.70;99.90;;;;;;5095113;28;20450;-70
2022/06/14 01:57:10;;;;;;;9.73;4.22;;;10.70;99.90;;;;;;5095604;28;20474;-73
2022/06/14 01:59:48;;;;;;;12.38;4.10;;;10.80;99.90;;;;;;5096148;28;20054;-70
2022/06/14 02:02:23;;;;;;;12.23;4.10;;;10.70;99.90;;;;;;5093617;28;20135;-72
2022/06/14 02:05:09;;;;;;;9.20;3.70;;;10.70;99.90;;;;;;5095812;28;20134;-72
2022/06/14 02:08:01;;;;;;;9.93;4.13;;;10.70;99.90;;;;;;5095769;28;20060;-72
2022/06/14 02:10:39;;;;;;;10.80;4.32;;;10.70;99.90;;;;;;5085988;28;20339;-72
2022/06/14 02:13:14;;;;;;;7.50;4.00;;;10.70;99.90;;;;;;5077992;28;20080;-71
2022/06/14 02:15:55;;;;;;;13.38;4.18;;;10.80;99.90;;;;;;5095808;28;20412;-70
2022/06/14 02:18:38;;;;;;;11.35;3.88;;;10.80;99.90;;;;;;5095851;28;20063;-70
2022/06/14 02:21:24;;;;;;;14.52;4.15;;;10.80;99.90;;;;;;5095654;28;20398;-72
2022/06/14 02:23:59;;;;;;;14.60;4.57;;;10.80;99.90;;;;;;5090441;28;20055;-72
2022/06/14 02:26:29;;;;;;;8.57;3.85;;;10.80;99.90;;;;;;5075246;28;20066;-70
2022/06/14 02:29:33;;;;;;;13.52;4.45;;;10.70;99.90;;;;;;5075206;28;20119;-73
2022/06/14 02:32:06;;;;;;;9.82;3.80;;;10.70;99.90;;;;;;5057343;28;20068;-70
2022/06/14 02:34:47;;;;;;;8.85;3.75;;;10.70;99.90;;;;;;5075276;28;20044;-71
2022/06/14 02:37:24;;;;;;;11.25;4.00;;;10.80;99.90;;;;;;5074916;28;20474;-73
2022/06/14 02:40:07;;;;;;;10.52;5.30;;;10.80;99.90;;;;;;5074387;28;20040;-71
2022/06/14 02:42:37;;;;;;;8.75;4.25;;;10.80;99.90;;;;;;5057615;28;20048;-71
2022/06/14 02:45:17;;;;;;;12.20;4.65;;;10.80;99.90;;;;;;5041128;28;20052;-72
2022/06/14 02:47:54;;;;;;;10.57;3.78;;;10.70;99.90;;;;;;5075197;28;20048;-73
2022/06/14 02:50:35;;;;;;;9.15;4.05;;;10.70;99.90;;;;;;5075653;28;20465;-72
2022/06/14 02:53:14;;;;;;;15.98;4.53;;;10.70;99.90;;;;;;5074510;28;20201;-73
2022/06/14 02:55:47;;;;;;;12.10;4.68;;;10.70;99.90;;;;;;5075070;28;20083;-73
2022/06/14 02:58:34;;;;;;;11.88;4.47;;;10.70;99.90;;;;;;5040885;28;20474;-70
2022/06/14 03:01:10;;;;;;;9.55;4.90;;;10.70;99.90;;;;;;5074952;28;20109;-71
2022/06/14 03:03:48;;;;;;;10.52;4.72;;;10.70;99.90;;;;;;5074833;28;20366;-72
2022/06/14 03:06:31;;;;;;;10.93;4.18;;;10.70;99.90;;;;;;5074511;28;20061;-70
2022/06/14 03:09:04;;;;;;;10.52;4.32;;;10.70;99.90;;;;;;5085921;28;20485;-70
2022/06/14 03:11:41;;;;;;;9.45;4.43;;;10.70;99.90;;;;;;5059650;28;20064;-73
2022/06/14 03:14:21;;;;;;;10.40;4.63;;;10.70;99.90;;;;;;5094986;28;20043;-70
2022/06/14 03:16:55;;;;;;;11.68;5.07;;;10.60;99.90;;;;;;5094516;28;20420;-71
2022/06/14 03:19:59;;;;;;;10.75;4.90;;;10.70;99.90;;;;;;5094658;28;20075;-73
2022/06/14 03:22:43;;;;;;;17.42;5.95;;;10.60;99.90;;;;;;5075239;28;20040;-71
2022/06/14 03:25:15;;;;;;;9.80;5.32;;;10.60;99.90;;;;;;5090382;28;20049;-71
2022/06/14 03:27:57;;;;;;;10.30;5.43;;;10.60;99.90;;;;;;5074392;28;20048;-73
2022/06/14 03:30:53;;;;;;;11.35;5.18;;;10.50;99.90;;;;;;5074553;28;20056;-70
2022/06/14 03:33:34;;;;;;;10.63;4.85;;;10.60;99.90;;;;;;5074365;28;20037;-73
2022/06/14 03:36:00;;;;;;;12.13;6.00;;;10.60;99.90;;;;;;5074258;28;20447;-72
2022/06/14 03:38:40;;;;;;;9.82;5.22;;;10.60;99.90;;;;;;5074198;28;20045;-71
2022/06/14 03:41:08;;;;;;;11.30;5.25;;;10.60;99.90;;;;;;5091213;28;20595;-71
2022/06/14 03:43:37;;;;;;;14.02;5.63;;;10.60;99.90;;;;;;5094610;28;20047;-70
2022/06/14 03:46:20;;;;;;;11.93;5.18;;;10.60;99.90;;;;;;5094417;28;20059;-73
2022/06/14 03:48:51;;;;;;;11.20;5.43;;;10.60;99.90;;;;;;5076552;28;20051;-73
2022/06/14 03:51:46;;;;;;;13.13;5.97;;;10.70;99.90;;;;;;5076806;28;20136;-70
2022/06/14 03:54:18;;;;;;;12.20;4.80;;;10.70;99.90;;;;;;5032795;28;20057;-73
2022/06/14 03:56:53;;;;;;;12.52;6.45;;;10.70;99.90;;;;;;5056303;28;20040;-72
2022/06/14 03:59:35;;;;;;;13.20;6.10;;;10.70;99.90;;;;;;5074196;28;20076;-70
2022/06/14 04:02:15;;;;;;;9.23;5.97;;;10.70;99.90;;;;;;5074281;28;20044;-71
2022/06/14 04:04:58;;;;;;;10.88;4.60;;;10.70;99.90;;;;;;5074125;28;20048;-71
2022/06/14 04:07:41;;;;;;;11.52;5.50;;;10.70;99.90;;;;;;5080498;28;20052;-73
2022/06/14 04:10:25;;;;;;;12.82;5.70;;;10.80;99.90;;;;;;5094368;28;20063;-72
2022/06/14 04:13:12;;;;;;;11.18;6.13;;;10.70;99.90;;;;;;5094037;28;20462;-71
2022/06/14 04:15:51;;;;;;;12.52;5.65;;;10.80;99.90;;;;;;5062886;28;20108;-73
2022/06/14 04:18:35;;;;;;;10.93;5.75;;;10.70;99.90;;;;;;5097851;28;20044;-73
2022/06/14 04:21:12;;;;;;;19.07;5.80;;;10.70;99.90;;;;;;5098102;28;20048;-70
2022/06/14 04:24:06;;;;;;;13.75;6.70;;;10.80;99.90;;;;;;5077638;28;20070;-70
2022/06/14 04:26:46;;;;;;;12.23;6.13;;;10.80;99.90;;;;;;5077371;28;20189;-73
2022/06/14 04:29:23;;;;;;;12.40;6.22;;;10.90;99.90;;;;;;5077572;28;20083;-71
2022/06/14 04:32:12;;;;;;;13.40;7.00;;;11.00;99.90;;;;;;5078100;28;20036;-71
2022/06/14 04:34:41;;;;;;;14.95;6.88;;;11.00;99.90;;;;;;5096481;28;20060;-70
2022/06/14 04:37:33;;;;;;;10.80;6.18;;;11.00;99.90;;;;;;5097544;28;20087;-72
2022/06/14 04:40:22;;;;;;;14.35;6.65;;;11.10;99.90;;;;;;5097795;28;20392;-73
2022/06/14 04:43:01;;;;;;;17.63;6.55;;;11.10;99.90;;;;;;5096587;28;20055;-72
2022/06/14 04:45:27;;;;;;;10.65;6.03;;;11.10;99.90;;;;;;5078907;28;20135;-71
2022/06/14 04:47:52;;;;;;;12.15;6.15;;;11.30;99.90;;;;;;5076909;28;20128;-72
2022/06/14 04:50:27;;;;;;;17.15;6.55;;;11.40;99.90;;;;;;5077109;28;20040;-71
2022/06/14 04:53:08;;;;;;;14.43;6.00;;;11.40;99.90;;;;;;5076956;28;20090;-71
2022/06/14 04:55:47;;;;;;;13.88;5.95;;;11.50;99.90;;;;;;5077327;28;20045;-73
2022/06/14 04:58:20;;;;;;;11.20;6.35;;;11.50;99.90;;;;;;5076700;28;20139;-70
2022/06/14 05:01:05;;;;;;;20.90;6.43;;;11.50;99.90;;;;;;5092951;28;20370;-71
2022/06/14 05:03:33;;;;;;;13.68;5.68;;;11.60;99.90;;;;;;5088852;28;20431;-73
2022/06/14 05:06:06;;;;;;;13.07;6.10;;;11.70;99.90;;;;;;5083443;28;20135;-70
2022/06/14 05:08:47;;;;;;;14.95;6.05;;;11.70;99.90;;;;;;5059394;28;20067;-69
2022/06/14 05:11:19;;;;;;;13.00;6.10;;;11.70;99.90;;;;;;5076788;28;20052;-72
2022/06/14 05:14:00;;;;;;;11.38;5.70;;;11.90;99.90;;;;;;5076973;28;20044;-69
2022/06/14 05:16:49;;;;;;;13.35;5.63;;;11.90;99.90;;;;;;5076571;28;20048;-70
2022/06/14 05:19:42;;;;;;;19.20;6.55;;;11.90;99.90;;;;;;5079583;28;20036;-72
2022/06/14 05:22:14;;;;;;;10.68;5.13;;;11.90;99.90;;;;;;5096116;28;20412;-69
2022/06/14 05:24:40;;;;;;;18.02;6.15;;;11.90;99.90;;;;;;5096701;28;20043;-70
2022/06/14 05:27:43;;;;;;;11.70;5.57;;;12.00;99.90;;;;;;5096595;28;20047;-69
2022/06/14 05:30:40;;;;;;;13.15;6.20;;;12.10;99.90;;;;;;5096480;28;20127;-70
2022/06/14 05:33:18;;;;;;;11.25;5.70;;;12.10;99.90;;;;;;5082480;28;20059;-69
2022/06/14 05:35:53;;;;;;;11.57;5.78;;;12.20;99.90;;;;;;5076330;28;20052;-69
2022/06/14 05:38:38;;;;;;;12.18;5.72;;;12.20;99.90;;;;;;5076112;28;20036;-70
2022/06/14 05:41:21;;;;;;;13.43;5.47;;;12.30;99.90;;;;;;5076103;28;20124;-69
2022/06/14 05:43:54;;;;;;;13.88;5.80;;;12.40;99.90;;;;;;5075556;28;20455;-68
2022/06/14 05:46:32;;;;;;;11.75;5.13;;;12.50;99.90;;;;;;5057963;28;20454;-70
2022/06/14 05:49:16;;;;;;;14.23;5.57;;;12.60;99.90;;;;;;5075708;28;20086;-70
2022/06/14 05:51:49;;;;;;;12.02;5.20;;;12.70;99.90;;;;;;5058117;28;20048;-71
2022/06/14 05:54:27;;;;;;;13.50;5.10;;;12.80;99.90;;;;;;5075574;28;20041;-69
2022/06/14 05:57:05;;;;;;;14.27;5.65;;;12.90;99.90;;;;;;5075845;28;20036;-70
2022/06/14 05:59:41;;;;;;;11.40;5.43;;;12.90;99.90;;;;;;5075131;28;20055;-69
2022/06/14 06:02:34;;;;;;;13.27;6.38;;;13.00;99.90;;;;;;5075448;28;20105;-69
2022/06/14 06:05:17;;;;;;;11.60;5.03;;;13.20;99.90;;;;;;5057132;28;20413;-70
2022/06/14 06:07:53;;;;;;;8.68;5.20;;;13.10;99.90;;;;;;5075364;28;20122;-71
2022/06/14 06:10:28;;;;;;;8.68;4.65;;;13.30;99.90;;;;;;5075350;28;20458;-70
2022/06/14 06:13:08;;;;;;;11.15;6.47;;;13.40;99.90;;;;;;5075413;28;20354;-70
2022/06/14 06:15:50;;;;;;;9.80;5.32;;;13.40;99.90;;;;;;5075235;28;20053;-69
2022/06/14 06:18:32;;;;;;;9.48;4.28;;;13.60;99.90;;;;;;5074662;28;20354;-70
2022/06/14 06:21:09;;;;;;;11.05;4.95;;;13.70;99.90;;;;;;5077092;28;20051;-69
2022/06/14 06:23:50;;;;;;;9.07;4.80;;;13.80;99.90;;;;;;5075188;28;20087;-69
2022/06/14 06:26:20;;;;;;;9.48;4.65;;;13.90;99.90;;;;;;5075193;28;20040;-69
2022/06/14 06:28:54;;;;;;;10.75;4.00;;;14.00;99.90;;;;;;5075206;28;20051;-69
2022/06/14 06:31:35;;;;;;;9.65;4.43;;;14.00;99.90;;;;;;5074417;28;20075;-72
2022/06/14 06:34:03;;;;;;;9.32;4.50;;;14.20;99.90;;;;;;5075210;28;20040;-68
2022/06/14 06:36:35;;;;;;;10.32;4.43;;;14.30;99.90;;;;;;5074634;28;20091;-70
2022/06/14 06:39:27;;;;;;;9.00;4.88;;;14.30;99.90;;;;;;5075226;28;20047;-69
2022/06/14 06:41:56;;;;;;;11.20;5.28;;;14.40;99.90;;;;;;5043530;28;20060;-70
2022/06/14 06:44:46;;;;;;;9.90;4.40;;;14.50;99.90;;;;;;5074758;28;20079;-70
2022/06/14 06:47:36;;;;;;;11.38;4.57;;;14.50;99.90;;;;;;5074363;28;20044;-71
2022/06/14 06:50:16;;;;;;;5.55;3.55;;;14.60;99.90;;;;;;5075018;28;20124;-68
2022/06/14 06:53:07;;;;;;;6.22;3.05;;;14.60;99.90;;;;;;5074758;28;20060;-68
2022/06/14 06:56:04;;;;;;;10.20;3.58;;;14.80;99.90;;;;;;5075027;28;20354;-69
2022/06/14 06:58:38;;;;;;;12.55;4.85;;;14.80;99.90;;;;;;5075665;28;20059;-70
2022/06/14 07:01:11;;;;;;;;;;;15.00;99.90;;;;;;5095533;28;20392;-70
2022/06/14 07:03:36;;;;;;;10.27;3.25;;;15.10;99.90;;;;;;5095079;28;19935;-69
2022/06/14 07:06:06;;;;;;;8.48;3.60;;;15.20;99.90;;;;;;5094637;28;20056;-69
2022/06/14 07:08:52;;;;;;;7.78;3.65;;;15.20;99.90;;;;;;5094615;28;20416;-70
2022/06/14 07:11:22;;;;;;;8.73;3.90;;;15.40;99.90;;;;;;5094862;28;20063;-69
2022/06/14 07:13:56;;;;;;;6.03;3.50;;;15.40;99.90;;;;;;5088409;28;20052;-68
2022/06/14 07:16:32;;;;;;;9.85;3.63;;;15.40;99.90;;;;;;5074773;28;20041;-69
2022/06/14 07:19:19;;;;;;;7.25;3.85;;;15.40;99.90;;;;;;5074599;28;20080;-70
2022/06/14 07:21:54;;;;;;;6.55;3.17;;;15.50;99.90;;;;;;5076424;28;20441;-70
2022/06/14 07:24:29;;;;;;;8.07;2.90;;;15.70;99.90;;;;;;5094812;28;20044;-70
2022/06/14 07:27:05;;;;;;;6.05;3.03;;;15.90;99.90;;;;;;5094812;28;20346;-70
2022/06/14 07:29:39;;;;;;;11.18;3.60;;;16.00;99.90;;;;;;5077237;28;20044;-70
2022/06/14 07:32:13;;;;;;;8.60;4.07;;;16.20;99.90;;;;;;5078303;28;20036;-72
2022/06/14 07:34:41;;;;;;;7.07;3.33;;;16.30;99.90;;;;;;5074442;28;20037;-69
2022/06/14 07:37:31;;;;;;;7.65;3.05;;;16.30;99.90;;;;;;5074733;28;20052;-69
2022/06/14 07:40:27;;;;;;;6.78;3.10;;;16.20;99.90;;;;;;5074658;28;20052;-71
2022/06/14 07:43:01;;;;;;;7.43;3.08;;;16.20;99.90;;;;;;5056788;28;20060;-70
2022/06/14 07:45:37;;;;;;;9.50;3.67;;;16.00;99.90;;;;;;5091644;28;20048;-69
2022/06/14 07:48:05;;;;;;;7.22;3.17;;;16.00;99.90;;;;;;5094397;28;20063;-69
2022/06/14 07:50:57;;;;;;;5.32;3.15;;;16.10;99.90;;;;;;5097940;28;20048;-70
2022/06/14 07:53:36;;;;;;;7.15;3.65;;;16.40;99.90;;;;;;5098421;28;20090;-70
2022/06/14 07:56:16;;;;;;;6.57;3.47;;;16.50;99.90;;;;;;5098225;28;20048;-71
2022/06/14 07:58:45;;;;;;;7.70;3.53;;;16.50;99.90;;;;;;5092640;28;20527;-70
2022/06/14 08:01:29;;;;;;;6.53;2.85;;;16.60;99.90;;;;;;5077963;28;20060;-71
2022/06/14 08:04:14;;;;;;;7.05;2.60;;;16.40;99.90;;;;;;5078075;28;20059;-70
2022/06/14 08:06:49;;;;;;;7.82;2.95;;;16.40;99.90;;;;;;5077759;28;20056;-70
2022/06/14 08:09:52;;;;;;;9.52;3.60;;;16.40;99.90;;;;;;5077714;28;20060;-70
2022/06/14 08:12:40;;;;;;;8.13;3.20;;;16.40;99.90;;;;;;5064570;28;20053;-70
2022/06/14 08:15:46;;;;;;;5.30;3.75;;;16.20;99.90;;;;;;5087497;28;20036;-70
2022/06/14 08:18:15;;;;;;;9.68;3.45;;;16.30;99.90;;;;;;5096750;28;20074;-72
2022/06/14 08:20:58;;;;;;;11.25;4.85;;;16.40;99.90;;;;;;5097539;28;20469;-70
2022/06/14 08:23:48;;;;;;;5.93;3.00;;;16.40;99.90;;;;;;5098283;28;20357;-69
2022/06/14 08:26:28;;;;;;;5.95;2.97;;;16.40;99.90;;;;;;5097577;28;20374;-71
2022/06/14 08:28:53;;;;;;;9.68;2.83;;;16.30;99.90;;;;;;5068103;28;20056;-71
2022/06/14 08:31:31;;;;;;;8.13;3.13;;;16.40;99.90;;;;;;5060054;28;20060;-71
2022/06/14 08:34:04;;;;;;;6.00;3.40;;;16.40;99.90;;;;;;5077567;28;20424;-70
2022/06/14 08:36:44;;;;;;;6.22;2.80;;;16.40;99.90;;;;;;5077345;28;20049;-70
2022/06/14 08:39:21;;;;;;;7.72;3.08;;;16.50;99.90;;;;;;5077224;28;20362;-70
2022/06/14 08:42:08;;;;;;;8.43;2.47;;;16.60;99.90;;;;;;5077472;28;20052;-70
2022/06/14 08:44:39;;;;;;;4.30;2.53;;;16.60;99.90;;;;;;5077381;28;20089;-72
2022/06/14 08:47:29;;;;;;;7.43;3.22;;;16.60;99.90;;;;;;5076941;28;20048;-71
2022/06/14 08:50:24;;;;;;;7.55;4.00;;;16.60;99.90;;;;;;5059385;28;20470;-70
2022/06/14 08:53:00;;;;;;;8.10;3.13;;;16.50;99.90;;;;;;5069254;28;20056;-71
2022/06/14 08:56:03;;;;;;;9.70;3.30;;;16.70;99.90;;;;;;5076442;28;20052;-71
2022/06/14 08:59:15;;;;;;;6.47;2.90;;;16.80;99.90;;;;;;5077132;28;20044;-69
2022/06/14 09:02:04;;;;;;;5.43;2.42;;;16.80;99.90;;;;;;5076642;28;20044;-70
2022/06/14 09:04:54;;;;;;;5.78;2.47;;;16.90;99.90;;;;;;5076848;28;20062;-70
2022/06/14 09:07:22;;;;;;;4.45;2.78;;;17.10;99.90;;;;;;5076794;28;20367;-70
2022/06/14 09:09:51;;;;;;;5.35;2.72;;;17.30;99.90;;;;;;5076110;28;20186;-70
2022/06/14 09:12:55;;;;;;;9.30;2.65;;;17.30;99.90;;;;;;5094753;28;20048;-68
2022/06/14 09:15:27;;;;;;;6.35;2.63;;;17.50;99.90;;;;;;5096934;28;20054;-69
2022/06/14 09:18:08;;;;;;;5.35;2.70;;;17.60;99.90;;;;;;5096944;28;20071;-71
2022/06/14 09:21:12;;;;;;;4.57;2.85;;;17.40;99.90;;;;;;5096846;28;20131;-70
2022/06/14 09:24:11;;;;;;;6.35;2.70;;;17.30;99.90;;;;;;5096830;28;20048;-69
2022/06/14 09:26:54;;;;;;;5.82;2.72;;;17.10;99.90;;;;;;5073117;28;20063;-70
2022/06/14 09:30:03;;;;;;;6.68;2.90;;;17.10;99.90;;;;;;5076051;28;20459;-68
2022/06/14 09:35:55;;;;;;;6.28;3.05;;;17.70;99.90;;;;;;5076049;28;20049;-70
2022/06/14 09:38:48;;;;;;;5.75;2.72;;;17.80;99.90;;;;;;5076232;28;20044;-69
2022/06/14 09:41:27;;;;;;;6.00;2.88;;;18.10;99.90;;;;;;5068007;28;20044;-70
2022/06/14 09:44:20;;;;;;;4.85;3.40;;;18.30;99.90;;;;;;5076065;28;20040;-70
2022/06/14 09:46:55;;;;;;;5.65;3.50;;;18.10;99.90;;;;;;5075827;28;20044;-69
2022/06/14 09:49:42;;;;;;;7.60;3.15;;;17.90;99.90;;;;;;5076064;28;20401;-68
2022/06/14 09:52:14;;;;;;;5.38;3.30;;;17.70;99.90;;;;;;5076197;28;20355;-69
2022/06/14 09:55:18;;;;;;;8.45;3.35;;;17.60;99.90;;;;;;5075656;28;20044;-69
2022/06/14 09:57:57;;;;;;;5.78;3.72;;;17.70;99.90;;;;;;5075371;28;20037;-69
2022/06/14 10:00:38;;;;;;;7.47;3.80;;;17.70;99.90;;;;;;5075714;28;20059;-72
2022/06/14 10:03:30;;;;;;;5.25;3.35;;;17.70;99.90;;;;;;5075619;28;20055;-69
2022/06/14 10:06:26;;;;;;;8.43;3.63;;;17.70;99.90;;;;;;5075501;28;20089;-69
2022/06/14 10:09:11;;;;;;;7.25;3.55;;;17.80;99.90;;;;;;5088439;28;20060;-69
2022/06/14 10:12:02;;;;;;;8.48;3.03;;;17.90;99.90;;;;;;5075264;28;20055;-69
2022/06/14 10:14:57;;;;;;;7.50;3.83;;;17.90;99.90;;;;;;5075492;28;20048;-70
2022/06/14 10:17:56;;;;;;;6.32;3.33;;;17.90;99.90;;;;;;5057653;28;20343;-69
2022/06/14 10:20:36;;;;;;;7.38;3.50;;;18.20;99.90;;;;;;5075621;28;20048;-70
2022/06/14 10:23:40;;;;;;;5.55;3.40;;;18.00;99.90;;;;;;5082669;28;20406;-68
2022/06/14 10:29:25;;;;;;;7.05;3.70;;;17.80;99.90;;;;;;5044511;28;20056;-70
2022/06/14 10:32:05;;;;;;;5.18;3.13;;;17.70;99.90;;;;;;5075225;28;20045;-69
2022/06/14 10:34:55;;;;;;;10.32;3.00;;;17.60;99.90;;;;;;5075018;28;20048;-71
2022/06/14 10:37:58;;;;;;;7.72;3.25;;;17.50;99.90;;;;;;5074501;28;20365;-69
2022/06/14 10:40:45;;;;;;;6.60;3.15;;;17.60;99.90;;;;;;5074732;28;20049;-69
2022/06/14 10:43:40;;;;;;;7.50;3.50;;;17.60;99.90;;;;;;5041088;28;20052;-69
2022/06/14 10:46:15;;;;;;;8.32;4.40;;;17.50;99.90;;;;;;5092789;28;20051;-70
2022/06/14 10:49:00;;;;;;;6.82;3.80;;;17.50;99.90;;;;;;5095173;28;20052;-71
2022/06/14 10:51:58;;;;;;;8.82;3.70;;;17.50;99.90;;;;;;5094880;28;20126;-70
2022/06/14 10:54:58;;;;;;;6.80;3.55;;;17.50;99.90;;;;;;5095288;28;20048;-69
2022/06/14 10:57:38;;;;;;;7.07;3.58;;;17.70;99.90;;;;;;5095264;28;20126;-73
2022/06/14 11:00:35;;;;;;;7.25;3.55;;;17.90;99.90;;;;;;5081781;28;20056;-71
2022/06/14 11:03:38;;;;;;;9.98;4.00;;;18.00;99.90;;;;;;5057524;28;20438;-69
2022/06/14 11:06:42;;;;;;;6.25;3.28;;;18.10;99.90;;;;;;5074457;28;20056;-69
2022/06/14 11:09:35;;;;;;;7.97;3.67;;;18.10;99.90;;;;;;5074532;28;20052;-69
2022/06/14 11:12:29;;;;;;;10.25;3.50;;;18.20;99.90;;;;;;5074311;28;20462;-68
2022/06/14 11:15:19;;;;;;;7.85;3.20;;;18.10;99.90;;;;;;5074614;28;20529;-71
2022/06/14 11:18:14;;;;;;;5.63;3.10;;;18.50;99.90;;;;;;5057221;28;20472;-69
2022/06/14 11:21:01;;;;;;;6.63;3.20;;;18.50;99.90;;;;;;5074406;28;20123;-68
2022/06/14 11:23:48;;;;;;;7.25;3.15;;;18.30;99.90;;;;;;5059056;28;20048;-68
2022/06/14 11:26:30;;;;;;;6.93;3.08;;;18.30;99.90;;;;;;5098962;28;20336;-68
2022/06/14 11:29:44;;;;;;;6.13;3.03;;;18.30;99.90;;;;;;5081307;28;20051;-69
2022/06/14 11:32:25;;;;;;;5.60;3.42;;;18.50;99.90;;;;;;5076719;28;20074;-70
2022/06/14 11:35:28;;;;;;;10.65;3.40;;;18.40;99.90;;;;;;5099015;28;20051;-70
2022/06/14 11:38:32;;;;;;;7.65;3.70;;;18.40;99.90;;;;;;5092825;28;20045;-69
2022/06/14 11:41:05;;;;;;;9.52;3.60;;;18.40;99.90;;;;;;5078392;28;20059;-69
2022/06/14 11:43:49;;;;;;;7.07;4.50;;;18.30;99.90;;;;;;5078629;28;20340;-69
2022/06/14 11:46:21;;;;;;;;;;;18.40;99.90;;;;;;5078708;28;20094;-69
2022/06/14 11:49:00;;;;;;;6.43;3.15;;;18.50;99.90;;;;;;5078027;28;20355;-69
2022/06/14 11:51:50;;;;;;;7.78;3.15;;;18.60;99.90;;;;;;5078157;28;20059;-69
2022/06/14 11:54:19;;;;;;;6.45;4.20;;;18.60;99.90;;;;;;5078098;28;20098;-69
2022/06/14 11:57:04;;;;;;;6.45;3.45;;;18.80;99.90;;;;;;5077839;28;20040;-72
2022/06/14 11:59:57;;;;;;;5.57;3.28;;;18.80;99.90;;;;;;5077992;28;20109;-70
2022/06/14 12:02:55;;;;;;;5.15;3.40;;;19.20;99.90;;;;;;5060601;28;20052;-70
2022/06/14 12:05:20;;;;;;;6.80;3.55;;;19.40;99.90;;;;;;5077424;28;20451;-69
2022/06/14 12:08:24;;;;;;;5.93;3.58;;;19.20;99.90;;;;;;5077504;28;20059;-69
2022/06/14 12:11:09;;;;;;;8.55;3.85;;;19.10;99.90;;;;;;5077922;28;20435;-69
2022/06/14 12:13:52;;;;;;;7.15;3.78;;;19.10;99.90;;;;;;5077279;28;20461;-70
2022/06/14 12:16:21;;;;;;;8.60;5.15;;;19.20;99.90;;;;;;5059907;28;20366;-70
2022/06/14 12:19:17;;;;;;;7.75;4.20;;;19.20;99.90;;;;;;5077815;28;20455;-71
2022/06/14 12:22:28;;;;;;;10.35;3.92;;;19.40;99.90;;;;;;5078235;28;20063;-70
2022/06/14 12:28:54;;;;;;;7.55;4.32;;;19.00;99.90;;;;;;5042918;28;20061;-69
2022/06/14 12:31:38;;;;;;;8.23;3.33;;;19.00;99.90;;;;;;5038821;28;20454;-69
2022/06/14 12:34:16;;;;;;;7.05;3.25;;;19.10;99.90;;;;;;5077074;28;20162;-72
2022/06/14 12:37:20;;;;;;;8.18;3.50;;;19.10;99.90;;;;;;5059205;28;20462;-69
2022/06/14 12:40:11;;;;;;;7.88;3.70;;;19.20;99.90;;;;;;5077037;28;20485;-72
2022/06/14 12:42:40;;;;;;;9.52;3.95;;;19.40;99.90;;;;;;5077070;28;20048;-70
2022/06/14 12:45:17;;;;;;;9.63;4.28;;;19.60;99.90;;;;;;5077250;28;20041;-68
2022/06/14 12:48:10;;;;;;;7.18;4.35;;;19.50;99.90;;;;;;5077183;28;20066;-69
2022/06/14 12:50:42;;;;;;;7.20;4.20;;;19.60;99.90;;;;;;5077103;28;20072;-68
2022/06/14 12:53:46;;;;;;;9.70;4.15;;;20.70;99.90;;;;;;5076760;28;20044;-70
2022/06/14 12:56:36;;;;;;;8.13;4.07;;;20.90;99.90;;;;;;5076983;28;20075;-71
2022/06/14 12:59:20;;;;;;;9.02;4.22;;;20.50;99.90;;;;;;5076802;28;20051;-71
2022/06/14 13:01:58;;;;;;;;;;;20.20;99.90;;;;;;5077182;28;20116;-71
2022/06/14 13:04:32;;;;;;;7.82;4.38;;;20.70;99.90;;;;;;5077025;28;19928;-70
2022/06/14 13:07:08;;;;;;;;;;;20.90;99.90;;;;;;5077415;28;20087;-69
2022/06/14 13:10:04;;;;;;;9.10;3.85;;;20.50;99.90;;;;;;5042732;28;19920;-69
2022/06/14 13:12:42;;;;;;;9.15;4.32;;;20.40;99.90;;;;;;5076589;28;20084;-72
2022/06/14 13:15:28;;;;;;;8.18;4.90;;;20.30;99.90;;;;;;5076815;28;20422;-71
2022/06/14 13:18:31;;;;;;;7.32;4.10;;;20.30;99.90;;;;;;5076585;28;20076;-69
2022/06/14 13:21:41;;;;;;;5.78;4.00;;;19.90;99.90;;;;;;5009638;28;20057;-70
2022/06/14 13:24:28;;;;;;;9.63;4.55;;;19.90;99.90;;;;;;5038346;28;20058;-70
2022/06/14 13:26:53;;;;;;;8.07;4.63;;;20.00;99.90;;;;;;5076299;28;20047;-70
2022/06/14 13:29:31;;;;;;;11.23;4.95;;;19.90;99.90;;;;;;5075322;28;20049;-70
2022/06/14 13:32:15;;;;;;;7.95;4.75;;;21.00;99.90;;;;;;5076348;28;20041;-71
2022/06/14 13:34:59;;;;;;;;;;;21.80;99.90;;;;;;5076725;28;20051;-69
2022/06/14 13:37:24;;;;;;;5.00;3.80;;;21.90;99.10;;;;;;5076152;28;19924;-71
2022/06/14 13:40:01;;;;;;;5.95;4.05;;;21.90;99.90;;;;;;5076404;28;20103;-71
2022/06/14 13:42:38;;;;;;;6.25;3.60;;;21.60;98.40;;;;;;5075875;28;20036;-72
2022/06/14 13:45:21;;;;;;;6.00;3.90;;;21.80;99.70;;;;;;5075907;28;20044;-70
2022/06/14 13:47:57;;;;;;;6.57;3.33;;;21.90;99.90;;;;;;5075057;28;20078;-70
2022/06/14 13:50:42;;;;;;;5.45;3.58;;;21.80;99.90;;;;;;5075926;28;20041;-70
2022/06/14 13:53:11;;;;;;;6.85;3.50;;;21.60;99.90;;;;;;5076114;28;20120;-70
2022/06/14 13:56:06;;;;;;;10.32;3.70;;;21.30;99.90;;;;;;5075865;28;20052;-73
2022/06/14 13:59:11;;;;;;;5.88;3.50;;;20.90;99.90;;;;;;5075003;28;20048;-72
2022/06/14 14:01:57;;;;;;;7.22;3.60;;;20.90;99.90;;;;;;5075627;28;20048;-70
2022/06/14 14:04:38;;;;;;;8.73;3.88;;;20.80;99.90;;;;;;5075413;28;20496;-71